Time;durP1;ratioP1;P1;durP2;ratioP2;P2;SDS_P1;SDS_P2;PMS_P1;PMS_P2;Temp;Humidity;BMP_temperature;BMP_pressure;BME280_temperature;BME280_humidity;BME280_pressure;Samples;Min_cycle;Max_cycle;Signal;HPM_P1;HPM_P2
2021/05/02 00:00:13;;;;;;;9.88;4.40;;;8.70;89.40;;;;;;6156038;23;20022;-89
2021/05/02 00:02:39;;;;;;;11.57;4.32;;;8.70;89.40;;;;;;6157020;23;20072;-90
2021/05/02 00:05:06;;;;;;;10.98;4.15;;;8.70;90.00;;;;;;6156940;23;20040;-91
2021/05/02 00:07:31;;;;;;;9.90;3.70;;;8.70;89.90;;;;;;6156910;23;20042;-92
2021/05/02 00:09:59;;;;;;;8.13;3.88;;;8.70;89.10;;;;;;6157415;23;20017;-89
2021/05/02 00:12:26;;;;;;;9.57;4.00;;;8.70;89.00;;;;;;6156952;23;20025;-90
2021/05/02 00:14:52;;;;;;;10.65;4.22;;;8.70;89.80;;;;;;6156571;23;20014;-90
2021/05/02 00:17:18;;;;;;;10.30;4.45;;;8.60;88.90;;;;;;6156416;23;20344;-92
2021/05/02 00:19:45;;;;;;;9.38;4.30;;;8.60;89.00;;;;;;6156993;23;20048;-89
2021/05/02 00:22:12;;;;;;;9.15;4.15;;;8.60;89.20;;;;;;6156383;23;20018;-91
2021/05/02 00:24:38;;;;;;;9.43;4.00;;;8.60;89.40;;;;;;6156946;23;20052;-91
2021/05/02 00:27:04;;;;;;;9.07;3.97;;;8.60;89.30;;;;;;6156788;23;20017;-90
2021/05/02 00:29:31;;;;;;;11.40;4.25;;;8.60;89.30;;;;;;6156483;23;20028;-90
2021/05/02 00:31:58;;;;;;;9.88;3.90;;;8.60;89.50;;;;;;6157155;23;20020;-89
2021/05/02 00:34:27;;;;;;;12.98;3.80;;;8.50;89.30;;;;;;6156784;23;20017;-90
2021/05/02 00:36:53;;;;;;;12.38;3.85;;;8.60;89.30;;;;;;6156675;23;20477;-91
2021/05/02 00:39:19;;;;;;;11.65;4.22;;;8.50;89.20;;;;;;6156400;23;20021;-90
2021/05/02 00:41:47;;;;;;;6.55;3.30;;;8.50;89.40;;;;;;6157020;23;20041;-90
2021/05/02 00:44:37;;;;;;;11.68;3.50;;;8.50;89.20;;;;;;6155774;23;20045;-90
2021/05/02 00:47:17;;;;;;;9.75;4.05;;;8.50;88.90;;;;;;6156998;23;20311;-90
2021/05/02 00:50:16;;;;;;;10.90;4.00;;;8.40;89.10;;;;;;6156152;23;20021;-90
2021/05/02 00:52:48;;;;;;;12.13;3.47;;;8.40;88.80;;;;;;6124264;23;20068;-90
2021/05/02 00:55:43;;;;;;;7.28;3.30;;;8.40;89.10;;;;;;6156820;23;20339;-91
2021/05/02 00:58:16;;;;;;;9.05;3.88;;;8.40;89.00;;;;;;6146863;23;20150;-91
2021/05/02 01:00:44;;;;;;;;;;;8.40;89.10;;;;;;6157307;23;20104;-91
2021/05/02 01:03:11;;;;;;;9.60;3.40;;;8.40;88.30;;;;;;6155592;23;19955;-90
2021/05/02 01:05:40;;;;;;;8.30;3.55;;;8.40;89.30;;;;;;6155836;23;20037;-91
2021/05/02 01:08:06;;;;;;;8.70;3.70;;;8.40;89.50;;;;;;6156245;23;20545;-90
2021/05/02 01:10:32;;;;;;;8.65;3.67;;;8.40;89.70;;;;;;6156333;23;20041;-91
2021/05/02 01:13:00;;;;;;;8.55;4.00;;;8.40;89.50;;;;;;6156550;23;20021;-90
2021/05/02 01:15:31;;;;;;;7.88;3.80;;;8.40;89.50;;;;;;6155906;23;20014;-90
2021/05/02 01:18:03;;;;;;;9.80;4.10;;;8.40;89.50;;;;;;6156107;23;20040;-91
2021/05/02 01:20:38;;;;;;;9.68;3.83;;;8.40;89.60;;;;;;6156291;23;20017;-90
2021/05/02 01:23:26;;;;;;;11.23;4.25;;;8.40;89.50;;;;;;6156051;23;20028;-90
2021/05/02 01:25:54;;;;;;;10.88;3.63;;;8.30;89.60;;;;;;6156062;23;20014;-90
2021/05/02 01:28:21;;;;;;;10.48;4.20;;;8.30;89.60;;;;;;6155861;23;20025;-91
2021/05/02 01:30:47;;;;;;;13.73;5.00;;;8.30;89.60;;;;;;6156784;23;20014;-90
2021/05/02 01:33:14;;;;;;;7.68;3.75;;;8.30;89.60;;;;;;6155471;23;20017;-90
2021/05/02 01:35:40;;;;;;;7.50;3.90;;;8.30;89.50;;;;;;6156524;23;20080;-90
2021/05/02 01:38:06;;;;;;;11.23;4.40;;;8.30;89.50;;;;;;6156107;23;20049;-91
2021/05/02 01:40:32;;;;;;;9.63;4.13;;;8.30;89.50;;;;;;6155432;23;20014;-91
2021/05/02 01:42:57;;;;;;;12.95;4.32;;;8.30;89.60;;;;;;6156165;23;20033;-91
2021/05/02 01:45:23;;;;;;;11.02;4.35;;;8.30;89.50;;;;;;6155438;23;20026;-91
2021/05/02 01:47:52;;;;;;;7.95;3.75;;;8.30;89.70;;;;;;6156305;23;20014;-91
2021/05/02 01:50:18;;;;;;;8.73;3.88;;;8.30;89.60;;;;;;6156087;23;20024;-90
2021/05/02 01:52:51;;;;;;;9.32;3.90;;;8.30;89.50;;;;;;6155725;23;20017;-89
2021/05/02 01:55:18;;;;;;;10.80;4.18;;;8.30;89.20;;;;;;6156114;23;20438;-92
2021/05/02 01:57:46;;;;;;;8.48;3.88;;;8.30;89.20;;;;;;6156151;23;20022;-90
2021/05/02 02:00:36;;;;;;;8.07;4.00;;;8.30;89.50;;;;;;6154930;23;20424;-88
2021/05/02 02:03:03;;;;;;;12.77;4.07;;;8.30;89.40;;;;;;6155766;23;20018;-91
2021/05/02 02:05:30;;;;;;;7.95;3.75;;;8.20;89.10;;;;;;6155973;23;20025;-90
2021/05/02 02:07:57;;;;;;;7.93;3.72;;;8.20;89.40;;;;;;6155848;23;20025;-90
2021/05/02 02:10:25;;;;;;;8.68;3.60;;;8.20;89.40;;;;;;6156847;23;20102;-89
2021/05/02 02:12:51;;;;;;;8.13;3.67;;;8.20;89.40;;;;;;6156710;23;20024;-91
2021/05/02 02:15:17;;;;;;;7.85;3.78;;;8.20;89.40;;;;;;6155698;23;20021;-91
2021/05/02 02:17:43;;;;;;;7.63;3.67;;;8.20;89.70;;;;;;6156435;23;20013;-89
2021/05/02 02:20:10;;;;;;;8.48;3.42;;;8.20;90.00;;;;;;6156212;23;20018;-88
2021/05/02 02:22:41;;;;;;;8.52;3.38;;;8.20;89.70;;;;;;6155895;23;20014;-90
2021/05/02 02:25:09;;;;;;;8.32;3.40;;;8.10;89.40;;;;;;6156470;23;20022;-90
2021/05/02 02:27:36;;;;;;;7.20;3.10;;;8.20;89.80;;;;;;6156088;23;20017;-90
2021/05/02 02:30:21;;;;;;;9.13;2.78;;;8.20;89.80;;;;;;6156187;23;20028;-90
2021/05/02 02:32:48;;;;;;;9.60;2.58;;;8.10;89.40;;;;;;6156166;23;20060;-89
2021/05/02 02:35:17;;;;;;;7.35;3.25;;;8.10;89.20;;;;;;6157223;23;20022;-94
2021/05/02 02:37:50;;;;;;;6.93;2.97;;;8.10;89.60;;;;;;6157741;23;20017;-93
2021/05/02 02:40:16;;;;;;;7.43;2.80;;;8.10;89.70;;;;;;6156586;23;20021;-94
2021/05/02 02:42:46;;;;;;;7.07;2.60;;;8.10;89.80;;;;;;6162774;23;20068;-94
2021/05/02 02:45:13;;;;;;;8.63;3.08;;;8.00;89.70;;;;;;6162198;23;20100;-92
2021/05/02 02:47:45;;;;;;;8.75;2.72;;;8.00;89.90;;;;;;6156496;23;20016;-92
2021/05/02 02:50:17;;;;;;;8.18;2.00;;;8.00;90.00;;;;;;6155875;23;20021;-93
2021/05/02 02:52:49;;;;;;;7.18;2.30;;;8.00;89.80;;;;;;6156516;23;20021;-92
2021/05/02 02:55:17;;;;;;;6.55;2.75;;;8.00;89.70;;;;;;6156072;23;20036;-94
2021/05/02 02:57:47;;;;;;;8.23;2.53;;;8.00;89.70;;;;;;6156155;23;20021;-92
2021/05/02 03:00:13;;;;;;;11.35;2.60;;;8.00;89.80;;;;;;6156164;23;20018;-93
2021/05/02 03:02:45;;;;;;;7.28;2.22;;;8.00;89.50;;;;;;6155401;23;20017;-92
2021/05/02 03:05:13;;;;;;;8.50;2.42;;;8.00;89.40;;;;;;6155676;23;20096;-94
2021/05/02 03:07:41;;;;;;;7.30;2.22;;;7.90;89.10;;;;;;6158212;23;20024;-95
2021/05/02 03:10:09;;;;;;;10.07;2.50;;;7.90;89.40;;;;;;6156121;23;20020;-94
2021/05/02 03:12:38;;;;;;;7.15;2.00;;;7.90;89.20;;;;;;6156104;23;20458;-93
2021/05/02 03:15:04;;;;;;;7.47;2.00;;;7.90;89.00;;;;;;6156476;23;20402;-93
2021/05/02 03:17:31;;;;;;;7.97;1.83;;;7.90;89.10;;;;;;6158001;23;20018;-96
2021/05/02 03:20:06;;;;;;;8.63;2.17;;;7.90;89.10;;;;;;6158499;23;20013;-95
2021/05/02 03:22:38;;;;;;;8.00;2.15;;;7.90;88.80;;;;;;6158287;23;20026;-93
2021/05/02 03:25:09;;;;;;;6.65;2.10;;;7.80;88.50;;;;;;6161075;23;20017;-96
2021/05/02 03:27:40;;;;;;;7.13;2.08;;;7.80;88.60;;;;;;6166909;23;20028;-94
2021/05/02 03:30:07;;;;;;;10.43;1.80;;;7.80;88.80;;;;;;6166628;23;20018;-95
2021/05/02 03:32:36;;;;;;;8.73;2.08;;;7.80;88.30;;;;;;6165080;23;20021;-95
2021/05/02 03:35:05;;;;;;;7.75;1.90;;;7.70;88.30;;;;;;6166056;23;20018;-96
2021/05/02 03:37:35;;;;;;;7.05;1.67;;;7.80;88.20;;;;;;6169063;23;20017;-95
2021/05/02 03:40:04;;;;;;;8.93;1.80;;;7.70;88.40;;;;;;6167775;23;20044;-96
2021/05/02 03:42:30;;;;;;;7.13;2.03;;;7.70;88.40;;;;;;6168820;23;20546;-94
2021/05/02 03:44:57;;;;;;;8.20;2.22;;;7.70;88.00;;;;;;6163018;23;20021;-95
2021/05/02 03:47:22;;;;;;;3.80;1.50;;;7.70;88.20;;;;;;6164894;23;20112;-94
2021/05/02 03:49:48;;;;;;;7.05;1.90;;;7.70;88.30;;;;;;6167765;23;20025;-95
2021/05/02 03:52:15;;;;;;;8.48;1.77;;;7.70;88.10;;;;;;6167737;23;20052;-95
2021/05/02 03:54:41;;;;;;;6.15;1.85;;;7.70;88.40;;;;;;6169046;23;20457;-95
2021/05/02 03:57:07;;;;;;;6.57;1.95;;;7.70;88.40;;;;;;6167415;23;20014;-94
2021/05/02 03:59:33;;;;;;;9.07;1.75;;;7.70;88.40;;;;;;6162924;23;20024;-95
2021/05/02 04:02:01;;;;;;;6.20;1.80;;;7.70;88.30;;;;;;6159536;23;20024;-94
2021/05/02 04:04:32;;;;;;;6.95;2.20;;;7.70;88.20;;;;;;6157966;23;20018;-93
2021/05/02 04:07:06;;;;;;;3.30;1.40;;;7.70;88.10;;;;;;6157641;23;20021;-93
2021/05/02 04:09:33;;;;;;;7.55;2.00;;;7.70;88.60;;;;;;6158189;23;20017;-93
2021/05/02 04:11:59;;;;;;;8.13;1.90;;;7.60;88.20;;;;;;6157568;23;20024;-93
2021/05/02 04:14:25;;;;;;;5.65;1.80;;;7.60;88.10;;;;;;6157383;23;20100;-91
2021/05/02 04:17:05;;;;;;;5.88;1.83;;;7.60;87.70;;;;;;6156611;23;20080;-95
2021/05/02 04:19:32;;;;;;;5.25;1.70;;;7.60;88.20;;;;;;6157056;23;20097;-94
2021/05/02 04:21:58;;;;;;;5.68;1.42;;;7.60;88.10;;;;;;6156616;23;20076;-93
2021/05/02 04:24:24;;;;;;;5.45;1.40;;;7.50;88.20;;;;;;6158818;23;20799;-91
2021/05/02 04:26:52;;;;;;;6.53;1.65;;;7.50;88.00;;;;;;6159257;23;20081;-94
2021/05/02 04:29:19;;;;;;;8.02;1.83;;;7.50;88.10;;;;;;6159263;23;20029;-95
2021/05/02 04:31:45;;;;;;;5.68;1.83;;;7.50;88.10;;;;;;6159243;23;20021;-93
2021/05/02 04:34:11;;;;;;;6.85;1.63;;;7.50;87.70;;;;;;6159133;23;20071;-94
2021/05/02 04:36:37;;;;;;;5.85;1.73;;;7.50;87.60;;;;;;6160060;23;20024;-93
2021/05/02 04:39:04;;;;;;;6.75;2.30;;;7.40;87.80;;;;;;6160800;23;20342;-95
2021/05/02 04:41:30;;;;;;;6.85;1.80;;;7.40;88.30;;;;;;6166557;23;20025;-94
2021/05/02 04:43:56;;;;;;;4.82;1.63;;;7.40;87.80;;;;;;6167356;23;20006;-96
2021/05/02 04:46:21;;;;;;;5.70;1.90;;;7.40;87.30;;;;;;6165229;23;20025;-94
2021/05/02 04:48:48;;;;;;;6.15;1.73;;;7.40;87.40;;;;;;6164626;23;20022;-91
2021/05/02 04:51:14;;;;;;;8.43;2.15;;;7.40;87.40;;;;;;6167276;23;20013;-94
2021/05/02 04:53:43;;;;;;;4.35;1.70;;;7.40;87.30;;;;;;6161508;23;20022;-93
2021/05/02 04:56:09;;;;;;;5.25;1.83;;;7.40;87.90;;;;;;6157483;23;20395;-94
2021/05/02 04:58:35;;;;;;;5.65;1.77;;;7.40;88.30;;;;;;6157466;23;20037;-93
2021/05/02 05:01:01;;;;;;;6.45;2.15;;;7.30;88.20;;;;;;6157658;23;20024;-92
2021/05/02 05:03:28;;;;;;;9.27;1.95;;;7.40;88.10;;;;;;6157207;23;20025;-93
2021/05/02 05:05:53;;;;;;;6.20;1.88;;;7.30;88.20;;;;;;6131825;23;20017;-93
2021/05/02 05:08:19;;;;;;;8.27;2.00;;;7.40;88.10;;;;;;6157671;23;20024;-94
2021/05/02 05:10:45;;;;;;;7.05;2.10;;;7.30;87.70;;;;;;6157527;23;20013;-90
2021/05/02 05:13:11;;;;;;;6.88;2.00;;;7.30;87.80;;;;;;6157736;23;20068;-94
2021/05/02 05:15:37;;;;;;;7.05;1.88;;;7.30;88.00;;;;;;6157783;23;20430;-93
2021/05/02 05:18:03;;;;;;;4.53;1.80;;;7.30;88.20;;;;;;6157409;23;20048;-93
2021/05/02 05:20:28;;;;;;;7.82;2.00;;;7.30;88.80;;;;;;6157214;23;20449;-93
2021/05/02 05:22:54;;;;;;;5.20;2.08;;;7.30;88.70;;;;;;6157310;23;20014;-94
2021/05/02 05:25:20;;;;;;;7.40;2.00;;;7.30;88.70;;;;;;6156832;23;20076;-95
2021/05/02 05:27:45;;;;;;;6.82;2.10;;;7.30;88.90;;;;;;6156975;23;20013;-93
2021/05/02 05:30:12;;;;;;;6.22;2.20;;;7.30;88.70;;;;;;6157143;23;20092;-92
2021/05/02 05:32:38;;;;;;;8.00;2.25;;;7.30;88.70;;;;;;6157684;23;20028;-94
2021/05/02 05:35:05;;;;;;;8.68;2.10;;;7.30;88.30;;;;;;6157230;23;20021;-94
2021/05/02 05:37:31;;;;;;;5.03;2.10;;;7.30;88.70;;;;;;6158559;23;20014;-93
2021/05/02 05:39:57;;;;;;;9.93;2.10;;;7.30;88.70;;;;;;6157775;23;20151;-91
2021/05/02 05:42:22;;;;;;;7.47;2.22;;;7.30;88.50;;;;;;6155205;23;20534;-95
2021/05/02 05:44:48;;;;;;;8.52;2.50;;;7.30;88.30;;;;;;6157832;23;20025;-95
2021/05/02 05:47:14;;;;;;;7.45;2.95;;;7.30;88.50;;;;;;6158321;23;20045;-91
2021/05/02 05:49:41;;;;;;;8.65;2.38;;;7.30;88.50;;;;;;6158202;23;20700;-95
2021/05/02 05:52:14;;;;;;;7.22;2.08;;;7.30;88.60;;;;;;6158115;23;20013;-93
2021/05/02 05:54:40;;;;;;;6.22;1.90;;;7.30;88.90;;;;;;6157600;23;20088;-93
2021/05/02 05:57:06;;;;;;;6.93;2.05;;;7.30;88.90;;;;;;6157322;23;20026;-95
2021/05/02 05:59:32;;;;;;;8.65;2.58;;;7.40;88.90;;;;;;6157729;23;20333;-93
2021/05/02 06:01:58;;;;;;;8.55;2.10;;;7.40;88.80;;;;;;6133657;23;20438;-92
2021/05/02 06:04:23;;;;;;;6.50;1.98;;;7.40;88.60;;;;;;6157001;23;20130;-91
2021/05/02 06:06:49;;;;;;;6.25;2.03;;;7.40;88.40;;;;;;6127270;23;20094;-94
2021/05/02 06:09:14;;;;;;;7.72;2.15;;;7.40;88.40;;;;;;6127741;23;20072;-93
2021/05/02 06:11:40;;;;;;;6.03;1.88;;;7.40;88.20;;;;;;6124617;23;20339;-87
2021/05/02 06:14:07;;;;;;;7.40;1.90;;;7.40;88.00;;;;;;6124788;23;20101;-87
2021/05/02 06:16:33;;;;;;;7.05;2.00;;;7.40;88.00;;;;;;6126178;23;20018;-87
2021/05/02 06:18:59;;;;;;;9.23;2.15;;;7.50;88.10;;;;;;6125332;23;20026;-87
2021/05/02 06:21:27;;;;;;;7.63;2.17;;;7.50;88.20;;;;;;6125385;23;20014;-88
2021/05/02 06:23:54;;;;;;;4.25;1.90;;;7.50;88.00;;;;;;6127786;23;20021;-88
2021/05/02 06:26:20;;;;;;;5.15;2.00;;;7.50;88.00;;;;;;6121902;23;20346;-86
2021/05/02 06:28:48;;;;;;;3.80;1.55;;;7.50;88.10;;;;;;6125206;23;20018;-89
2021/05/02 06:31:16;;;;;;;4.43;1.63;;;7.60;88.00;;;;;;6125417;23;20018;-87
2021/05/02 06:33:42;;;;;;;6.40;1.73;;;7.60;87.80;;;;;;6124698;23;20529;-87
2021/05/02 06:36:08;;;;;;;3.97;1.42;;;7.60;87.90;;;;;;6123940;23;20018;-87
2021/05/02 06:38:34;;;;;;;5.53;1.77;;;7.60;87.70;;;;;;6124568;23;20550;-87
2021/05/02 06:40:59;;;;;;;5.68;1.63;;;7.70;87.70;;;;;;6124000;23;20046;-86
2021/05/02 06:43:25;;;;;;;4.10;1.42;;;7.70;88.10;;;;;;6124074;23;20022;-86
2021/05/02 06:45:51;;;;;;;5.20;1.67;;;7.70;88.10;;;;;;6124600;23;20056;-85
2021/05/02 06:48:19;;;;;;;4.45;1.48;;;7.80;88.10;;;;;;6123487;23;20375;-85
2021/05/02 06:50:47;;;;;;;6.15;1.50;;;7.70;88.00;;;;;;6124801;23;20021;-84
2021/05/02 06:53:13;;;;;;;5.00;1.67;;;7.70;88.20;;;;;;6124634;23;20029;-84
2021/05/02 06:55:39;;;;;;;7.30;1.88;;;7.70;88.60;;;;;;6098684;23;20014;-86
2021/05/02 06:58:05;;;;;;;7.40;1.65;;;7.70;88.60;;;;;;6125633;23;20462;-86
2021/05/02 07:00:31;;;;;;;3.63;1.40;;;7.70;88.40;;;;;;6126220;23;20045;-86
2021/05/02 07:02:57;;;;;;;6.30;1.38;;;7.70;88.40;;;;;;6125119;23;20022;-86
2021/05/02 07:05:22;;;;;;;3.97;1.40;;;7.70;88.60;;;;;;6136700;23;20354;-87
2021/05/02 07:07:49;;;;;;;5.75;1.52;;;7.70;88.80;;;;;;6154848;23;20021;-87
2021/05/02 07:10:15;;;;;;;5.97;1.63;;;7.70;89.10;;;;;;6153997;23;20382;-85
2021/05/02 07:12:41;;;;;;;5.72;2.00;;;7.80;89.20;;;;;;6155583;23;20014;-85
2021/05/02 07:15:07;;;;;;;5.18;1.60;;;7.80;89.10;;;;;;6155277;23;20535;-85
2021/05/02 07:17:33;;;;;;;4.65;1.73;;;7.80;89.40;;;;;;6154038;23;20023;-86
2021/05/02 07:19:59;;;;;;;5.82;1.75;;;7.80;89.40;;;;;;6155080;23;20049;-87
2021/05/02 07:22:27;;;;;;;4.82;1.60;;;7.80;89.40;;;;;;6153463;23;20385;-87
2021/05/02 07:24:53;;;;;;;4.55;1.73;;;7.80;89.20;;;;;;6152962;23;20025;-85
2021/05/02 07:27:19;;;;;;;7.50;1.85;;;7.90;89.40;;;;;;6153806;23;20025;-86
2021/05/02 07:29:47;;;;;;;4.32;1.70;;;7.90;89.20;;;;;;6154050;23;20021;-89
2021/05/02 07:32:14;;;;;;;6.43;1.80;;;7.90;89.40;;;;;;6153703;23;20013;-87
2021/05/02 07:34:39;;;;;;;10.75;2.20;;;8.00;89.50;;;;;;6153668;23;20404;-88
2021/05/02 07:37:05;;;;;;;5.00;1.67;;;8.00;89.20;;;;;;6152711;23;20017;-87
2021/05/02 07:39:32;;;;;;;6.70;2.00;;;8.00;89.00;;;;;;6154154;23;20049;-87
2021/05/02 07:41:57;;;;;;;4.97;1.55;;;8.10;89.10;;;;;;6154244;23;20018;-87
2021/05/02 07:44:23;;;;;;;7.65;2.05;;;8.10;88.90;;;;;;6152472;23;20024;-85
2021/05/02 07:46:49;;;;;;;6.35;1.95;;;8.10;88.70;;;;;;6154406;23;20032;-90
2021/05/02 07:49:14;;;;;;;7.20;1.80;;;8.20;88.50;;;;;;6154182;23;20017;-92
2021/05/02 07:51:40;;;;;;;6.43;1.67;;;8.30;88.30;;;;;;6153973;23;20088;-89
2021/05/02 07:54:06;;;;;;;8.57;1.80;;;8.40;88.10;;;;;;6154471;23;20013;-86
2021/05/02 07:56:32;;;;;;;6.78;1.70;;;8.50;88.40;;;;;;6153554;23;20120;-87
2021/05/02 07:58:58;;;;;;;7.97;1.90;;;8.60;87.90;;;;;;6154389;23;20042;-87
2021/05/02 08:01:24;;;;;;;6.80;1.90;;;8.60;87.30;;;;;;6156151;23;20022;-89
2021/05/02 08:03:49;;;;;;;7.47;1.50;;;8.70;87.10;;;;;;6156751;23;20152;-85
2021/05/02 08:06:15;;;;;;;8.23;2.05;;;8.80;86.70;;;;;;6155353;23;20033;-85
2021/05/02 08:08:41;;;;;;;7.22;1.83;;;8.90;86.10;;;;;;6157089;23;20022;-87
2021/05/02 08:11:06;;;;;;;5.82;1.65;;;9.00;85.70;;;;;;6157150;23;20014;-88
2021/05/02 08:13:32;;;;;;;5.28;1.30;;;9.10;85.50;;;;;;6156851;23;20022;-90
2021/05/02 08:15:58;;;;;;;4.82;1.67;;;9.20;85.30;;;;;;6155681;23;20017;-89
2021/05/02 08:18:23;;;;;;;6.18;1.65;;;9.20;84.70;;;;;;6156907;23;20457;-87
2021/05/02 08:20:49;;;;;;;5.88;1.60;;;9.20;84.50;;;;;;6156515;23;20013;-86
2021/05/02 08:23:15;;;;;;;6.88;1.70;;;9.20;84.40;;;;;;6156453;23;20053;-83
2021/05/02 08:25:41;;;;;;;6.40;1.70;;;9.30;84.30;;;;;;6157090;23;20025;-85
2021/05/02 08:28:06;;;;;;;5.90;1.83;;;9.30;84.50;;;;;;6156017;23;20025;-84
2021/05/02 08:30:33;;;;;;;5.70;1.40;;;9.30;85.00;;;;;;6158539;23;20020;-89
2021/05/02 08:32:59;;;;;;;6.20;1.60;;;9.40;84.90;;;;;;6156604;23;20080;-88
2021/05/02 08:35:25;;;;;;;5.88;1.65;;;9.50;84.60;;;;;;6155267;23;20021;-88
2021/05/02 08:37:51;;;;;;;7.82;1.70;;;9.60;84.10;;;;;;6156890;23;20037;-89
2021/05/02 08:40:17;;;;;;;4.65;1.38;;;9.60;83.50;;;;;;6155218;23;20028;-83
2021/05/02 08:42:42;;;;;;;5.75;1.35;;;9.70;82.70;;;;;;6156595;23;20045;-83
2021/05/02 08:45:09;;;;;;;3.45;1.48;;;9.70;81.50;;;;;;6156777;23;20054;-83
2021/05/02 08:47:36;;;;;;;4.10;1.23;;;9.60;81.40;;;;;;6155885;23;20057;-83
2021/05/02 08:50:08;;;;;;;7.78;1.60;;;9.70;82.40;;;;;;6156685;23;20076;-83
2021/05/02 08:52:35;;;;;;;4.97;1.37;;;9.60;83.60;;;;;;6156799;23;20037;-83
2021/05/02 08:55:01;;;;;;;6.60;1.50;;;9.60;83.30;;;;;;6156014;23;20261;-84
2021/05/02 08:57:26;;;;;;;7.63;1.42;;;9.60;83.50;;;;;;6156698;23;20057;-83
2021/05/02 08:59:52;;;;;;;5.93;1.40;;;9.60;83.60;;;;;;6156269;23;20017;-83
2021/05/02 09:02:26;;;;;;;6.65;1.70;;;9.60;83.20;;;;;;6155446;23;20025;-82
2021/05/02 09:04:55;;;;;;;5.82;1.17;;;9.60;83.40;;;;;;6156039;23;20346;-83
2021/05/02 09:07:21;;;;;;;5.05;1.42;;;9.60;82.80;;;;;;6156613;23;20383;-82
2021/05/02 09:09:47;;;;;;;8.02;1.33;;;9.60;82.50;;;;;;6154745;23;20045;-82
2021/05/02 09:12:21;;;;;;;6.05;1.55;;;9.70;82.20;;;;;;6155908;23;20017;-82
2021/05/02 09:14:47;;;;;;;6.43;1.45;;;9.80;82.10;;;;;;6156277;23;20466;-83
2021/05/02 09:17:17;;;;;;;4.78;1.30;;;9.90;81.60;;;;;;6155272;23;20013;-84
2021/05/02 09:19:48;;;;;;;4.95;1.40;;;10.00;80.90;;;;;;6155793;23;20021;-83
2021/05/02 09:22:16;;;;;;;5.50;1.20;;;10.10;79.90;;;;;;6155913;23;20014;-83
2021/05/02 09:24:42;;;;;;;8.05;1.60;;;10.10;79.80;;;;;;6155013;23;20469;-83
2021/05/02 09:27:12;;;;;;;5.07;1.33;;;10.20;79.90;;;;;;6155386;23;20044;-83
2021/05/02 09:29:41;;;;;;;5.10;1.15;;;10.20;79.30;;;;;;6155180;23;20476;-87
2021/05/02 09:32:08;;;;;;;7.90;1.40;;;10.30;79.40;;;;;;6155946;23;20013;-85
2021/05/02 09:34:35;;;;;;;4.88;1.35;;;10.30;79.00;;;;;;6156395;23;20039;-86
2021/05/02 09:37:07;;;;;;;5.38;1.58;;;10.40;78.60;;;;;;6155022;23;20021;-85
2021/05/02 09:39:49;;;;;;;5.68;1.20;;;10.40;77.80;;;;;;6155862;23;20020;-87
2021/05/02 09:42:21;;;;;;;5.18;1.35;;;10.50;78.10;;;;;;6155561;23;20017;-86
2021/05/02 09:44:54;;;;;;;5.25;1.20;;;10.60;77.80;;;;;;6155239;23;20028;-86
2021/05/02 09:47:29;;;;;;;4.87;1.40;;;10.70;77.40;;;;;;6154448;23;20018;-86
2021/05/02 09:50:17;;;;;;;8.98;1.70;;;10.70;77.40;;;;;;6155158;23;20265;-86
2021/05/02 09:53:06;;;;;;;7.03;1.60;;;10.80;77.30;;;;;;6154814;23;20104;-86
2021/05/02 09:55:36;;;;;;;4.18;1.10;;;10.70;76.00;;;;;;6154953;23;20013;-85
2021/05/02 09:58:08;;;;;;;3.97;1.05;;;10.70;74.70;;;;;;6154932;23;20025;-84
2021/05/02 10:00:36;;;;;;;7.15;1.48;;;10.60;74.80;;;;;;6155752;23;20021;-84
2021/05/02 10:03:06;;;;;;;8.50;1.50;;;10.60;75.20;;;;;;6154437;23;20434;-84
2021/05/02 10:05:32;;;;;;;6.20;1.70;;;10.60;75.20;;;;;;6153979;23;20378;-84
2021/05/02 10:07:58;;;;;;;4.65;1.20;;;10.60;75.60;;;;;;6154576;23;20018;-85
2021/05/02 10:10:24;;;;;;;3.65;1.17;;;10.60;75.40;;;;;;6154695;23;20481;-84
2021/05/02 10:12:51;;;;;;;4.70;1.23;;;10.70;74.30;;;;;;6153253;23;20022;-84
2021/05/02 10:15:21;;;;;;;4.93;1.20;;;10.80;74.20;;;;;;6155162;23;20068;-84
2021/05/02 10:17:52;;;;;;;5.05;1.50;;;10.80;73.60;;;;;;6155806;23;20063;-84
2021/05/02 10:20:20;;;;;;;5.63;1.30;;;10.90;73.50;;;;;;6154214;23;20049;-84
2021/05/02 10:22:47;;;;;;;5.95;1.40;;;10.90;72.80;;;;;;6154346;23;20088;-84
2021/05/02 10:25:14;;;;;;;5.55;1.35;;;10.80;72.80;;;;;;6155481;23;20044;-85
2021/05/02 10:27:45;;;;;;;7.80;1.40;;;10.80;72.20;;;;;;6154680;23;20458;-83
2021/05/02 10:30:18;;;;;;;4.68;1.23;;;10.70;72.30;;;;;;6155177;23;20454;-84
2021/05/02 10:33:10;;;;;;;9.75;1.23;;;10.60;72.30;;;;;;6152853;23;20529;-84
2021/05/02 10:35:54;;;;;;;5.75;1.65;;;10.70;71.10;;;;;;6155822;23;20064;-84
2021/05/02 10:38:40;;;;;;;3.70;1.27;;;10.70;70.80;;;;;;6155540;23;20021;-83
2021/05/02 10:41:35;;;;;;;5.30;1.10;;;10.70;71.70;;;;;;6153401;23;20020;-85
2021/05/02 10:44:05;;;;;;;5.47;1.33;;;10.70;70.10;;;;;;6155559;23;20028;-84
2021/05/02 10:46:58;;;;;;;6.45;1.15;;;10.80;70.60;;;;;;6155122;23;20446;-85
2021/05/02 10:49:24;;;;;;;7.15;1.27;;;10.90;69.10;;;;;;6154214;23;20478;-89
2021/05/02 10:51:55;;;;;;;5.18;1.10;;;10.90;70.30;;;;;;6154718;23;20040;-92
2021/05/02 10:54:39;;;;;;;3.53;1.13;;;10.90;70.30;;;;;;6154322;23;20048;-91
2021/05/02 10:57:05;;;;;;;10.40;1.35;;;11.00;70.30;;;;;;6156102;23;20044;-94
2021/05/02 11:00:02;;;;;;;5.93;1.50;;;11.00;70.30;;;;;;6157135;23;20022;-87
2021/05/02 11:02:43;;;;;;;5.75;1.50;;;11.00;70.00;;;;;;6153879;23;20018;-89
2021/05/02 11:05:12;;;;;;;4.75;1.23;;;10.90;70.40;;;;;;6146109;23;20049;-90
2021/05/02 11:07:40;;;;;;;5.05;1.27;;;10.90;71.30;;;;;;6146689;23;20146;-89
2021/05/02 11:10:08;;;;;;;5.68;1.30;;;10.80;71.10;;;;;;6153274;23;20021;-89
2021/05/02 11:12:34;;;;;;;6.68;1.35;;;10.80;70.90;;;;;;6155309;23;20063;-89
2021/05/02 11:15:01;;;;;;;5.30;1.30;;;10.80;71.50;;;;;;6153429;23;20102;-88
2021/05/02 11:17:28;;;;;;;8.48;1.50;;;10.70;70.90;;;;;;6154526;23;20532;-87
2021/05/02 11:19:55;;;;;;;4.47;1.38;;;10.70;70.80;;;;;;6160807;23;20021;-91
2021/05/02 11:22:21;;;;;;;8.75;1.15;;;10.70;71.40;;;;;;6167060;23;20017;-93
2021/05/02 11:24:48;;;;;;;5.45;1.40;;;10.70;71.10;;;;;;6160634;23;20378;-90
2021/05/02 11:29:54;;;;;;;7.03;1.20;;;10.70;71.00;;;;;;6154350;23;20473;-88
2021/05/02 11:32:29;;;;;;;3.97;1.20;;;10.60;70.30;;;;;;6155856;23;20100;-87
2021/05/02 11:35:05;;;;;;;6.55;1.40;;;10.60;70.50;;;;;;6157725;23;20014;-84
2021/05/02 11:37:42;;;;;;;5.40;1.23;;;10.60;69.20;;;;;;6156561;23;20018;-86
2021/05/02 11:40:35;;;;;;;5.10;1.20;;;10.50;69.00;;;;;;6156965;23;20018;-85
2021/05/02 11:43:16;;;;;;;5.20;1.10;;;10.50;68.30;;;;;;6156456;23;20024;-84
2021/05/02 11:45:58;;;;;;;5.03;1.23;;;10.40;69.00;;;;;;6157341;23;20021;-84
2021/05/02 11:48:31;;;;;;;3.38;1.05;;;10.50;68.80;;;;;;6157626;23;20017;-87
2021/05/02 11:51:05;;;;;;;6.57;1.50;;;10.50;68.40;;;;;;6155438;23;20480;-85
2021/05/02 11:53:31;;;;;;;7.50;1.58;;;10.50;70.00;;;;;;6157464;23;20022;-84
2021/05/02 11:55:56;;;;;;;8.98;1.83;;;10.50;71.50;;;;;;6157360;23;20373;-85
2021/05/02 11:58:22;;;;;;;7.43;1.83;;;10.40;72.20;;;;;;6155931;23;20044;-85
2021/05/02 12:00:50;;;;;;;6.97;1.67;;;10.40;72.70;;;;;;6156884;23;20013;-81
2021/05/02 12:03:18;;;;;;;7.28;1.85;;;10.30;73.00;;;;;;6156921;23;20100;-84
2021/05/02 12:05:55;;;;;;;5.80;1.50;;;10.20;72.90;;;;;;6156056;23;20022;-86
2021/05/02 12:08:23;;;;;;;7.72;1.48;;;10.20;73.50;;;;;;6156934;23;20080;-85
2021/05/02 12:11:07;;;;;;;7.07;1.95;;;10.20;73.90;;;;;;6156964;23;20017;-84
2021/05/02 12:13:36;;;;;;;7.55;2.00;;;10.10;73.50;;;;;;6156476;23;20041;-86
2021/05/02 12:16:15;;;;;;;5.78;1.40;;;10.10;74.50;;;;;;6157330;23;20025;-84
2021/05/02 12:18:53;;;;;;;6.53;1.60;;;10.10;74.80;;;;;;6156155;23;20021;-86
2021/05/02 12:21:26;;;;;;;5.45;1.70;;;10.20;74.80;;;;;;6156305;23;20393;-86
2021/05/02 12:24:04;;;;;;;7.80;1.52;;;10.20;75.50;;;;;;6157355;23;20024;-85
2021/05/02 12:26:29;;;;;;;5.60;1.50;;;10.30;76.40;;;;;;6156319;23;20045;-85
2021/05/02 12:29:07;;;;;;;6.68;1.40;;;10.30;76.20;;;;;;6157009;23;20029;-85
2021/05/02 12:31:34;;;;;;;4.72;1.15;;;10.30;75.60;;;;;;6156657;23;20025;-84
2021/05/02 12:34:00;;;;;;;4.70;1.20;;;10.30;74.80;;;;;;6155439;23;20021;-85
2021/05/02 12:36:28;;;;;;;3.80;1.05;;;10.30;74.20;;;;;;6155405;23;20014;-86
2021/05/02 12:39:15;;;;;;;5.10;1.13;;;10.20;73.90;;;;;;6154981;23;20497;-87
2021/05/02 12:41:42;;;;;;;3.75;1.20;;;10.30;72.80;;;;;;6153635;23;20021;-84
2021/05/02 12:44:15;;;;;;;2.65;0.90;;;10.30;72.10;;;;;;6155444;23;20021;-86
2021/05/02 12:46:45;;;;;;;;;;;10.30;70.90;;;;;;6154739;23;20084;-86
2021/05/02 12:49:23;;;;;;;4.90;1.00;;;10.20;69.30;;;;;;6155862;23;20347;-85
2021/05/02 12:52:02;;;;;;;5.00;1.30;;;10.30;71.80;;;;;;6155453;23;20390;-86
2021/05/02 12:54:30;;;;;;;5.38;1.30;;;10.30;70.20;;;;;;6154736;23;20044;-85
2021/05/02 12:57:05;;;;;;;2.75;0.90;;;10.30;71.50;;;;;;6156401;23;20068;-86
2021/05/02 13:00:20;;;;;;;4.05;1.10;;;10.30;71.10;;;;;;6156136;23;20085;-86
2021/05/02 13:02:28;;;;;;;3.88;0.95;;;10.30;71.30;;;;;;6143613;23;20013;-86
2021/05/02 13:04:56;;;;;;;4.07;1.05;;;10.30;70.20;;;;;;6154651;23;20029;-86